createdAt,value
2023-03-18T00:00:17.051Z,4.72
2023-03-18T00:02:47.975Z,4.72
2023-03-18T00:05:16.224Z,4.71
2023-03-18T00:07:45.444Z,4.70
2023-03-18T00:10:13.568Z,4.69
2023-03-18T00:12:41.736Z,4.66
2023-03-18T00:15:10.568Z,4.66
2023-03-18T00:17:40.330Z,4.67
2023-03-18T00:20:09.505Z,4.70
2023-03-18T00:22:37.993Z,4.75
2023-03-18T00:25:07.245Z,4.78
2023-03-18T00:27:35.956Z,4.81
2023-03-18T00:30:05.657Z,4.86
2023-03-18T00:32:34.495Z,4.91
2023-03-18T00:35:02.568Z,4.96
2023-03-18T00:37:31.765Z,4.96
2023-03-18T00:40:07.961Z,4.97
2023-03-18T00:42:47.653Z,5.00
2023-03-18T00:45:16.289Z,5.02
2023-03-18T00:47:50.288Z,5.01
2023-03-18T00:50:20.501Z,4.96
2023-03-18T00:52:49.204Z,4.92
2023-03-18T00:55:17.529Z,4.88
2023-03-18T00:57:45.536Z,4.88
2023-03-18T01:00:17.056Z,4.88
2023-03-18T01:02:45.777Z,4.92
2023-03-18T01:05:14.352Z,4.94
2023-03-18T01:07:42.762Z,4.95
2023-03-18T01:10:13.184Z,4.95
2023-03-18T01:12:44.122Z,4.93
2023-03-18T01:15:12.789Z,4.92
2023-03-18T01:17:40.950Z,4.88
2023-03-18T01:20:11.648Z,4.82
2023-03-18T01:22:43.467Z,4.75
2023-03-18T01:25:12.165Z,4.74
2023-03-18T01:27:40.811Z,4.74
2023-03-18T01:30:10.005Z,4.73
2023-03-18T01:32:48.067Z,4.74
2023-03-18T01:35:16.433Z,4.72
2023-03-18T01:37:47.170Z,4.74
2023-03-18T01:40:16.219Z,4.77
2023-03-18T01:42:47.469Z,4.78
2023-03-18T01:45:18.206Z,4.80
2023-03-18T01:47:47.626Z,4.77
2023-03-18T01:50:18.913Z,4.75
2023-03-18T01:52:46.934Z,4.70
2023-03-18T01:55:17.163Z,4.68
2023-03-18T01:57:45.444Z,4.69
2023-03-18T02:00:15.638Z,4.72
2023-03-18T02:02:45.570Z,4.75
2023-03-18T02:05:14.703Z,4.77
2023-03-18T02:07:45.834Z,4.75
2023-03-18T02:10:34.556Z,4.73
2023-03-18T02:13:04.631Z,4.74
2023-03-18T02:15:43.124Z,4.75
2023-03-18T02:18:34.585Z,4.73
2023-03-18T02:21:02.827Z,4.76
2023-03-18T02:23:42.948Z,4.81
2023-03-18T02:26:20.539Z,4.84
2023-03-18T02:28:49.545Z,4.88
2023-03-18T02:31:19.184Z,4.90
2023-03-18T02:33:47.350Z,4.90
2023-03-18T02:36:21.799Z,4.85
2023-03-18T02:38:51.526Z,4.85
2023-03-18T02:41:26.522Z,4.87
2023-03-18T02:43:54.563Z,4.85
2023-03-18T02:46:31.164Z,4.84
2023-03-18T02:49:00.631Z,4.82
2023-03-18T02:51:30.372Z,4.78
2023-03-18T02:54:08.466Z,4.78
2023-03-18T02:56:38.399Z,4.82
2023-03-18T02:59:07.599Z,4.86
2023-03-18T03:01:36.907Z,4.87
2023-03-18T03:04:05.312Z,4.85
2023-03-18T03:06:34.443Z,4.83
2023-03-18T03:09:03.651Z,4.83
2023-03-18T03:11:31.829Z,4.78
2023-03-18T03:14:07.121Z,4.74
2023-03-18T03:16:37.043Z,4.72
2023-03-18T03:19:06.033Z,4.73
2023-03-18T03:21:36.180Z,4.77
2023-03-18T03:24:04.528Z,4.77
2023-03-18T03:26:36.761Z,4.71
2023-03-18T03:29:07.239Z,4.67
2023-03-18T03:31:35.327Z,4.66
2023-03-18T03:34:06.166Z,4.65
2023-03-18T03:36:34.298Z,4.66
2023-03-18T03:39:04.359Z,4.69
2023-03-18T03:41:36.792Z,4.72
2023-03-18T03:44:05.075Z,4.70
2023-03-18T03:46:33.158Z,4.70
2023-03-18T03:49:01.321Z,4.66
2023-03-18T03:51:30.738Z,4.64
2023-03-18T03:53:59.425Z,4.64
2023-03-18T03:56:28.523Z,4.65
2023-03-18T03:58:56.695Z,4.61
2023-03-18T04:01:25.752Z,4.56
2023-03-18T04:03:56.015Z,4.47
2023-03-18T04:06:24.091Z,4.41
2023-03-18T04:09:00.432Z,4.40
2023-03-18T04:11:28.552Z,4.35
2023-03-18T04:13:56.691Z,4.31
2023-03-18T04:16:28.780Z,4.28
2023-03-18T04:18:57.741Z,4.27
2023-03-18T04:21:25.787Z,4.30
2023-03-18T04:23:57.454Z,4.33
2023-03-18T04:26:26.191Z,4.34
2023-03-18T04:28:57.537Z,4.33
2023-03-18T04:31:25.977Z,4.26
2023-03-18T04:33:55.573Z,4.21
2023-03-18T04:36:24.489Z,4.20
2023-03-18T04:38:52.722Z,4.19
2023-03-18T04:41:22.634Z,4.17
2023-03-18T04:43:50.803Z,4.20
2023-03-18T04:46:19.369Z,4.21
2023-03-18T04:48:47.532Z,4.21
2023-03-18T04:51:15.606Z,4.21
2023-03-18T04:53:49.500Z,4.19
2023-03-18T04:56:18.846Z,4.21
2023-03-18T04:58:50.974Z,4.23
2023-03-18T05:01:23.548Z,4.26
2023-03-18T05:03:51.977Z,4.28
2023-03-18T05:06:30.893Z,4.32
2023-03-18T05:09:05.555Z,4.35
2023-03-18T05:11:39.812Z,4.39
2023-03-18T05:14:21.447Z,4.45
2023-03-18T05:16:50.299Z,4.47
2023-03-18T05:19:19.966Z,4.49
2023-03-18T05:21:54.357Z,4.52
2023-03-18T05:24:23.048Z,4.53
2023-03-18T05:27:00.228Z,4.53
2023-03-18T05:29:34.686Z,4.56
2023-03-18T05:32:11.646Z,4.62
2023-03-18T05:34:40.244Z,4.65
2023-03-18T05:37:09.122Z,4.68
2023-03-18T05:39:40.366Z,4.69
2023-03-18T05:42:11.678Z,4.69
2023-03-18T05:44:40.658Z,4.65
2023-03-18T05:47:10.894Z,4.65
2023-03-18T05:50:00.013Z,4.73
2023-03-18T05:52:29.319Z,4.74
2023-03-18T05:55:01.234Z,4.73
2023-03-18T05:57:32.863Z,4.72
2023-03-18T06:00:05.057Z,4.72
2023-03-18T06:02:56.485Z,4.74
2023-03-18T06:05:24.930Z,4.77
2023-03-18T06:07:54.119Z,4.80
2023-03-18T06:10:23.045Z,4.86
2023-03-18T06:12:55.500Z,4.92
2023-03-18T06:15:24.478Z,4.93
2023-03-18T06:17:54.100Z,4.97
2023-03-18T06:20:22.658Z,5.03
2023-03-18T06:22:52.899Z,5.04
2023-03-18T06:25:21.901Z,5.01
2023-03-18T06:27:50.688Z,5.04
2023-03-18T06:30:25.046Z,5.05
2023-03-18T06:32:57.246Z,5.02
2023-03-18T06:35:32.642Z,5.02
2023-03-18T06:38:01.628Z,5.05
2023-03-18T06:40:30.197Z,5.13
2023-03-18T06:42:59.176Z,5.21
2023-03-18T06:45:34.510Z,5.24
2023-03-18T06:48:07.324Z,5.25
2023-03-18T06:50:39.775Z,5.22
2023-03-18T06:53:12.859Z,5.29
2023-03-18T06:55:41.573Z,5.35
2023-03-18T06:58:10.636Z,5.36
2023-03-18T07:00:47.679Z,5.32
2023-03-18T07:03:22.725Z,5.30
2023-03-18T07:05:52.526Z,5.28
2023-03-18T07:08:23.738Z,5.30
2023-03-18T07:10:54.025Z,5.33
2023-03-18T07:13:27.090Z,5.39
2023-03-18T07:16:00.537Z,5.47
2023-03-18T07:18:28.921Z,5.56
2023-03-18T07:20:59.768Z,5.63
2023-03-18T07:23:28.872Z,5.68
2023-03-18T07:25:58.900Z,5.69
2023-03-18T07:28:27.172Z,5.65
2023-03-18T07:30:55.427Z,5.63
2023-03-18T07:33:26.117Z,5.55
2023-03-18T07:35:56.868Z,5.46
2023-03-18T07:38:25.604Z,5.46
2023-03-18T07:40:53.673Z,5.48
2023-03-18T07:43:22.547Z,5.51
2023-03-18T07:45:52.746Z,5.56
2023-03-18T07:48:22.311Z,5.58
2023-03-18T07:50:50.374Z,5.58
2023-03-18T07:53:19.198Z,5.62
2023-03-18T07:55:47.430Z,5.68
2023-03-18T07:58:15.553Z,5.70
2023-03-18T08:00:45.282Z,5.78
2023-03-18T08:03:14.298Z,5.93
2023-03-18T08:05:43.712Z,6.03
2023-03-18T08:08:12.685Z,6.10
2023-03-18T08:10:42.393Z,6.17
2023-03-18T08:13:13.244Z,6.22
2023-03-18T08:15:41.511Z,6.27
2023-03-18T08:18:10.504Z,6.31
2023-03-18T08:20:39.832Z,6.39
2023-03-18T08:23:08.344Z,6.46
2023-03-18T08:25:36.232Z,6.51
2023-03-18T08:28:07.710Z,6.57
2023-03-18T08:30:35.997Z,6.68
2023-03-18T08:33:04.131Z,6.73
2023-03-18T08:35:34.306Z,6.76
2023-03-18T08:38:07.036Z,6.80
2023-03-18T08:40:39.973Z,6.85
2023-03-18T08:43:08.505Z,6.90
2023-03-18T08:45:36.534Z,6.89
2023-03-18T08:48:05.378Z,6.84
2023-03-18T08:50:35.973Z,6.81
2023-03-18T08:53:04.431Z,6.87
2023-03-18T08:55:37.243Z,6.98
2023-03-18T08:58:05.916Z,7.15
2023-03-18T09:00:34.963Z,7.33
2023-03-18T09:03:04.135Z,7.37
2023-03-18T09:05:33.105Z,7.37
2023-03-18T09:08:01.181Z,7.41
2023-03-18T09:10:30.424Z,7.50
2023-03-18T09:12:58.435Z,7.56
2023-03-18T09:15:27.476Z,7.45
2023-03-18T09:18:10.433Z,7.35
2023-03-18T09:20:40.418Z,7.34
2023-03-18T09:23:09.236Z,7.30
2023-03-18T09:25:39.052Z,7.33
2023-03-18T09:28:06.999Z,7.31
2023-03-18T09:30:38.241Z,7.20
2023-03-18T09:33:07.822Z,7.08
2023-03-18T09:35:36.711Z,7.04
2023-03-18T09:38:06.789Z,7.02
2023-03-18T09:40:37.947Z,7.04
2023-03-18T09:43:25.659Z,7.07
2023-03-18T09:46:00.688Z,7.02
2023-03-18T09:48:34.894Z,6.97
2023-03-18T09:51:19.395Z,6.97
2023-03-18T09:53:52.246Z,7.01
2023-03-18T09:56:24.862Z,7.03
2023-03-18T09:58:53.946Z,7.08
2023-03-18T10:01:22.881Z,7.12
2023-03-18T10:03:51.116Z,7.19
2023-03-18T10:06:20.617Z,7.23
2023-03-18T10:08:54.784Z,7.15
2023-03-18T10:11:24.155Z,7.02
2023-03-18T10:13:54.680Z,6.96
2023-03-18T10:16:24.009Z,6.96
2023-03-18T10:18:52.091Z,7.00
2023-03-18T10:21:27.756Z,7.05
2023-03-18T10:23:58.301Z,7.11
2023-03-18T10:26:36.071Z,7.15
2023-03-18T10:29:23.116Z,7.26
2023-03-18T10:32:11.775Z,7.45
2023-03-18T10:34:41.246Z,7.65
2023-03-18T10:37:21.867Z,7.77
2023-03-18T10:39:50.249Z,7.81
2023-03-18T10:42:20.782Z,7.77
2023-03-18T10:44:49.240Z,7.71
2023-03-18T10:47:19.869Z,7.73
2023-03-18T10:49:51.763Z,7.78
2023-03-18T10:52:46.487Z,7.89
2023-03-18T10:55:18.732Z,7.90
2023-03-18T10:57:47.913Z,7.78
2023-03-18T11:00:26.039Z,7.65
2023-03-18T11:02:55.417Z,7.56
2023-03-18T11:05:31.841Z,7.65
2023-03-18T11:08:01.364Z,7.76
2023-03-18T11:10:32.280Z,7.80
2023-03-18T11:13:02.552Z,7.90
2023-03-18T11:15:34.758Z,7.94
2023-03-18T11:18:03.363Z,7.92
2023-03-18T11:20:43.253Z,7.94
2023-03-18T11:23:46.247Z,8.00
2023-03-18T11:26:20.904Z,7.99
2023-03-18T11:28:49.695Z,8.01
2023-03-18T11:31:18.842Z,8.14
2023-03-18T11:33:47.429Z,8.26
2023-03-18T11:36:27.030Z,8.24
2023-03-18T11:38:56.315Z,8.11
2023-03-18T11:41:24.940Z,8.12
2023-03-18T11:44:00.547Z,8.25
2023-03-18T11:47:04.529Z,8.37
2023-03-18T11:49:32.857Z,8.48
2023-03-18T11:52:04.249Z,8.45
2023-03-18T11:54:42.676Z,8.34
2023-03-18T11:57:19.098Z,8.26
2023-03-18T12:00:00.987Z,8.21
2023-03-18T12:02:35.636Z,8.01
2023-03-18T12:05:26.697Z,7.76
2023-03-18T12:07:57.734Z,7.62
2023-03-18T12:10:29.908Z,7.45
2023-03-18T12:13:14.223Z,7.32
2023-03-18T12:15:48.562Z,7.24
2023-03-18T12:18:23.229Z,7.19
2023-03-18T12:20:55.584Z,7.14
2023-03-18T12:23:44.663Z,7.14
2023-03-18T12:26:16.108Z,7.16
2023-03-18T12:28:50.661Z,7.16
2023-03-18T12:31:55.614Z,7.17
2023-03-18T12:34:33.530Z,7.15
2023-03-18T12:37:08.956Z,7.18
2023-03-18T12:39:41.927Z,7.23
2023-03-18T12:42:29.504Z,7.31
2023-03-18T12:44:58.166Z,7.38
2023-03-18T12:47:41.138Z,7.40
2023-03-18T12:50:19.812Z,7.42
2023-03-18T12:52:48.731Z,7.45
2023-03-18T12:55:21.863Z,7.50
2023-03-18T12:57:54.624Z,7.53
2023-03-18T13:00:28.935Z,7.55
2023-03-18T13:03:00.210Z,7.59
2023-03-18T13:05:37.072Z,7.64
2023-03-18T13:08:05.590Z,7.70
2023-03-18T13:10:34.909Z,7.76
2023-03-18T13:13:04.065Z,7.80
2023-03-18T13:15:43.478Z,7.83
2023-03-18T13:18:14.957Z,7.86
2023-03-18T13:20:42.889Z,7.88
2023-03-18T13:23:44.103Z,7.92
2023-03-18T13:26:30.733Z,7.97
2023-03-18T13:29:19.952Z,8.02
2023-03-18T13:31:54.098Z,8.05
2023-03-18T13:34:40.858Z,8.07
2023-03-18T13:37:36.399Z,8.10
2023-03-18T13:40:20.129Z,8.12
2023-03-18T13:42:49.464Z,8.13
2023-03-18T13:45:24.402Z,8.13
2023-03-18T13:47:56.479Z,8.14
2023-03-18T13:50:25.417Z,8.16
2023-03-18T13:52:54.174Z,8.17
2023-03-18T13:55:26.486Z,8.18
2023-03-18T13:58:18.291Z,8.21
2023-03-18T14:01:09.250Z,8.23
2023-03-18T14:03:41.811Z,8.24
2023-03-18T14:06:32.037Z,8.24
2023-03-18T14:09:00.642Z,8.26
2023-03-18T14:11:45.283Z,8.26
2023-03-18T14:14:32.492Z,8.25
2023-03-18T14:17:00.707Z,8.21
2023-03-18T14:19:34.223Z,8.21
2023-03-18T14:22:13.854Z,8.22
2023-03-18T14:24:44.281Z,8.24
2023-03-18T14:27:17.394Z,8.27
2023-03-18T14:29:47.423Z,8.29
2023-03-18T14:32:31.222Z,8.30
2023-03-18T14:35:24.865Z,8.30
2023-03-18T14:37:55.060Z,8.33
2023-03-18T14:40:23.124Z,8.37
2023-03-18T14:42:53.995Z,8.38
2023-03-18T14:45:27.727Z,8.39
2023-03-18T14:47:59.792Z,8.40
2023-03-18T14:51:00.841Z,8.41
2023-03-18T14:53:49.214Z,8.45
2023-03-18T14:56:43.950Z,8.46
2023-03-18T14:59:14.858Z,8.48
2023-03-18T15:01:47.233Z,8.49
2023-03-18T15:04:18.117Z,8.49
2023-03-18T15:06:46.506Z,8.49
2023-03-18T15:09:19.412Z,8.47
2023-03-18T15:11:48.324Z,8.43
2023-03-18T15:14:30.352Z,8.40
2023-03-18T15:16:59.422Z,8.40
2023-03-18T15:19:27.917Z,8.41
2023-03-18T15:21:56.840Z,8.40
2023-03-18T15:24:26.872Z,8.41
2023-03-18T15:26:55.877Z,8.42
2023-03-18T15:29:25.767Z,8.42
2023-03-18T15:31:53.951Z,8.42
2023-03-18T15:34:23.209Z,8.37
2023-03-18T15:37:01.630Z,8.31
2023-03-18T15:39:36.208Z,8.24
2023-03-18T15:42:14.422Z,8.18
2023-03-18T15:44:44.114Z,8.13
2023-03-18T15:47:20.301Z,8.10
2023-03-18T15:49:53.663Z,8.07
2023-03-18T15:52:25.273Z,8.04
2023-03-18T15:54:53.643Z,8.01
2023-03-18T15:57:29.236Z,7.97
2023-03-18T15:59:58.611Z,7.90
2023-03-18T16:02:27.629Z,7.86
2023-03-18T16:05:09.488Z,7.82
2023-03-18T16:07:38.762Z,7.77
2023-03-18T16:10:07.076Z,7.71
2023-03-18T16:12:39.590Z,7.67
2023-03-18T16:15:10.542Z,7.64
2023-03-18T16:17:39.244Z,7.61
2023-03-18T16:20:14.992Z,7.58
2023-03-18T16:22:43.053Z,7.55
2023-03-18T16:25:14.052Z,7.52
2023-03-18T16:27:43.440Z,7.50
2023-03-18T16:30:17.909Z,7.46
2023-03-18T16:32:47.456Z,7.44
2023-03-18T16:35:16.097Z,7.41
2023-03-18T16:37:44.400Z,7.36
2023-03-18T16:40:22.156Z,7.32
2023-03-18T16:42:51.127Z,7.29
2023-03-18T16:45:24.302Z,7.26
2023-03-18T16:47:59.496Z,7.24
2023-03-18T16:50:30.513Z,7.22
2023-03-18T16:52:58.648Z,7.20
2023-03-18T16:55:28.327Z,7.18
2023-03-18T16:58:00.715Z,7.17
2023-03-18T17:00:32.904Z,7.16
2023-03-18T17:03:01.766Z,7.11
2023-03-18T17:05:34.841Z,7.07
2023-03-18T17:08:03.507Z,7.05
2023-03-18T17:10:31.703Z,7.03
2023-03-18T17:13:00.388Z,7.01
2023-03-18T17:15:29.292Z,6.99
2023-03-18T17:17:59.744Z,6.97
2023-03-18T17:20:29.706Z,6.96
2023-03-18T17:23:02.110Z,6.94
2023-03-18T17:25:30.511Z,6.92
2023-03-18T17:27:59.938Z,6.90
2023-03-18T17:30:28.545Z,6.87
2023-03-18T17:33:00.735Z,6.84
2023-03-18T17:35:29.721Z,6.82
2023-03-18T17:37:57.966Z,6.79
2023-03-18T17:40:28.618Z,6.78
2023-03-18T17:43:01.674Z,6.76
2023-03-18T17:45:32.507Z,6.76
2023-03-18T17:48:14.489Z,6.75
2023-03-18T17:50:43.363Z,6.71
2023-03-18T17:53:31.557Z,6.69
2023-03-18T17:55:59.767Z,6.65
2023-03-18T17:58:30.163Z,6.62
2023-03-18T18:01:03.759Z,6.60
2023-03-18T18:03:31.788Z,6.58
2023-03-18T18:06:00.592Z,6.55
2023-03-18T18:08:29.454Z,6.53
2023-03-18T18:11:20.197Z,6.49
2023-03-18T18:13:48.920Z,6.48
2023-03-18T18:16:17.042Z,6.46
2023-03-18T18:18:49.814Z,6.43
2023-03-18T18:21:21.942Z,6.41
2023-03-18T18:23:49.914Z,6.40
2023-03-18T18:26:18.429Z,6.37
2023-03-18T18:28:48.246Z,6.34
2023-03-18T18:31:19.516Z,6.30
2023-03-18T18:33:50.061Z,6.27
2023-03-18T18:36:18.458Z,6.21
2023-03-18T18:38:46.614Z,6.15
2023-03-18T18:41:15.505Z,6.11
2023-03-18T18:43:45.321Z,6.07
2023-03-18T18:46:17.861Z,6.04
2023-03-18T18:48:47.516Z,6.01
2023-03-18T18:51:17.642Z,6.00
2023-03-18T18:53:46.496Z,5.98
2023-03-18T18:56:14.681Z,5.97
2023-03-18T18:58:43.613Z,5.95
2023-03-18T19:01:13.115Z,5.93
2023-03-18T19:03:42.185Z,5.90
2023-03-18T19:06:16.648Z,5.89
2023-03-18T19:08:53.148Z,5.83
2023-03-18T19:11:21.299Z,5.77
2023-03-18T19:13:51.037Z,5.71
2023-03-18T19:16:25.374Z,5.63
2023-03-18T19:18:53.708Z,5.53
2023-03-18T19:21:24.563Z,5.46
2023-03-18T19:23:52.903Z,5.41
2023-03-18T19:26:21.838Z,5.38
2023-03-18T19:29:01.593Z,5.36
2023-03-18T19:31:35.134Z,5.33
2023-03-18T19:34:05.644Z,5.31
2023-03-18T19:36:37.719Z,5.29
2023-03-18T19:39:06.284Z,5.26
2023-03-18T19:41:35.531Z,5.21
2023-03-18T19:44:11.562Z,5.17
2023-03-18T19:46:44.674Z,5.16
2023-03-18T19:49:15.965Z,5.13
2023-03-18T19:51:44.381Z,5.11
2023-03-18T19:54:19.188Z,5.10
2023-03-18T19:56:47.515Z,5.07
2023-03-18T19:59:23.221Z,5.04
2023-03-18T20:01:51.664Z,5.01
2023-03-18T20:04:19.843Z,5.01
2023-03-18T20:06:50.725Z,5.01
2023-03-18T20:09:18.825Z,4.98
2023-03-18T20:11:47.129Z,4.96
2023-03-18T20:14:25.787Z,4.94
2023-03-18T20:16:54.864Z,4.92
2023-03-18T20:19:23.049Z,4.95
2023-03-18T20:21:52.010Z,4.95
2023-03-18T20:24:22.102Z,4.97
2023-03-18T20:26:53.778Z,4.97
2023-03-18T20:29:24.158Z,4.99
2023-03-18T20:31:52.232Z,4.99
2023-03-18T20:34:21.180Z,4.99
2023-03-18T20:36:50.369Z,4.98
2023-03-18T20:39:24.380Z,4.97
2023-03-18T20:41:57.688Z,4.97
2023-03-18T20:44:25.864Z,4.97
2023-03-18T20:46:53.813Z,4.97
2023-03-18T20:49:23.103Z,4.97
2023-03-18T20:51:51.875Z,4.96
2023-03-18T20:54:21.209Z,4.95
2023-03-18T20:56:51.409Z,4.93
2023-03-18T20:59:19.346Z,4.89
2023-03-18T21:01:48.021Z,4.86
2023-03-18T21:04:19.440Z,4.84
2023-03-18T21:06:48.803Z,4.82
2023-03-18T21:09:17.592Z,4.80
2023-03-18T21:11:52.030Z,4.78
2023-03-18T21:14:21.636Z,4.76
2023-03-18T21:16:51.887Z,4.75
2023-03-18T21:19:21.342Z,4.74
2023-03-18T21:21:49.428Z,4.72
2023-03-18T21:24:25.678Z,4.68
2023-03-18T21:27:04.237Z,4.65
2023-03-18T21:29:33.807Z,4.61
2023-03-18T21:32:03.827Z,4.58
2023-03-18T21:34:33.039Z,4.56
2023-03-18T21:37:03.876Z,4.53
2023-03-18T21:39:34.315Z,4.52
2023-03-18T21:42:02.274Z,4.50
2023-03-18T21:44:30.552Z,4.48
2023-03-18T21:46:58.559Z,4.44
2023-03-18T21:49:27.256Z,4.41
2023-03-18T21:51:55.226Z,4.38
2023-03-18T21:54:24.401Z,4.37
2023-03-18T21:56:55.142Z,4.37
2023-03-18T21:59:23.791Z,4.39
2023-03-18T22:01:52.981Z,4.44
2023-03-18T22:04:22.266Z,4.47
2023-03-18T22:06:51.151Z,4.51
2023-03-18T22:09:19.190Z,4.55
2023-03-18T22:11:47.103Z,4.61
2023-03-18T22:14:15.127Z,4.69
2023-03-18T22:16:44.258Z,4.77
2023-03-18T22:19:12.622Z,4.83
2023-03-18T22:21:40.840Z,4.89
2023-03-18T22:24:11.550Z,4.94
2023-03-18T22:26:40.165Z,5.01
2023-03-18T22:29:12.542Z,5.07
2023-03-18T22:31:43.834Z,5.10
2023-03-18T22:34:22.608Z,5.11
2023-03-18T22:36:50.682Z,5.09
2023-03-18T22:39:18.955Z,5.08
2023-03-18T22:41:54.000Z,5.12
2023-03-18T22:44:22.574Z,5.16
2023-03-18T22:46:50.801Z,5.18
2023-03-18T22:49:20.043Z,5.21
2023-03-18T22:51:48.858Z,5.22
2023-03-18T22:54:19.285Z,5.24
2023-03-18T22:56:48.440Z,5.25
2023-03-18T22:59:16.828Z,5.26
2023-03-18T23:01:46.620Z,5.28
2023-03-18T23:04:15.067Z,5.30
2023-03-18T23:06:44.500Z,5.32
2023-03-18T23:09:13.090Z,5.34
2023-03-18T23:11:41.314Z,5.34
2023-03-18T23:14:10.569Z,5.35
2023-03-18T23:16:40.838Z,5.30
2023-03-18T23:19:08.956Z,5.25
2023-03-18T23:21:37.973Z,5.26
2023-03-18T23:24:06.646Z,5.30
2023-03-18T23:26:36.363Z,5.38
2023-03-18T23:29:05.006Z,5.43
2023-03-18T23:31:33.038Z,5.48
2023-03-18T23:34:01.810Z,5.52
2023-03-18T23:36:30.289Z,5.53
2023-03-18T23:39:00.347Z,5.54
2023-03-18T23:41:30.450Z,5.54
2023-03-18T23:43:58.547Z,5.56
2023-03-18T23:46:27.775Z,5.58
2023-03-18T23:48:55.900Z,5.58
2023-03-18T23:51:23.874Z,5.57
2023-03-18T23:53:53.726Z,5.56
2023-03-18T23:56:26.130Z,5.56
2023-03-18T23:58:54.139Z,5.56
